sensor_id;sensor_type;location;lat;lon;timestamp;pressure;altitude;pressure_sealevel;temperature;humidity
10460;BME280;54412;51.206;6.888;2023-03-21T00:01:12;101026.44;;;11.80;61.00
10460;BME280;54412;51.206;6.888;2023-03-21T00:03:39;101030.53;;;11.87;60.80
10460;BME280;54412;51.206;6.888;2023-03-21T00:06:10;101022.44;;;11.90;61.02
10460;BME280;54412;51.206;6.888;2023-03-21T00:08:38;101014.72;;;11.86;60.71
10460;BME280;54412;51.206;6.888;2023-03-21T00:11:07;101006.88;;;11.84;61.54
10460;BME280;54412;51.206;6.888;2023-03-21T00:13:35;101023.34;;;11.89;60.89
10460;BME280;54412;51.206;6.888;2023-03-21T00:16:13;101012.31;;;11.81;61.07
10460;BME280;54412;51.206;6.888;2023-03-21T00:18:48;101004.56;;;11.95;60.71
10460;BME280;54412;51.206;6.888;2023-03-21T00:21:20;101003.75;;;11.76;61.95
10460;BME280;54412;51.206;6.888;2023-03-21T00:23:46;101001.56;;;11.84;61.54
10460;BME280;54412;51.206;6.888;2023-03-21T00:26:13;101007.34;;;11.92;61.22
10460;BME280;54412;51.206;6.888;2023-03-21T00:28:42;101002.91;;;11.76;61.67
10460;BME280;54412;51.206;6.888;2023-03-21T00:31:08;100998.53;;;11.56;62.32
10460;BME280;54412;51.206;6.888;2023-03-21T00:33:35;100989.75;;;11.91;60.89
10460;BME280;54412;51.206;6.888;2023-03-21T00:36:03;100993.88;;;11.80;61.67
10460;BME280;54412;51.206;6.888;2023-03-21T00:38:30;100989.06;;;11.71;62.11
10460;BME280;54412;51.206;6.888;2023-03-21T00:40:55;100986.41;;;11.71;62.19
10460;BME280;54412;51.206;6.888;2023-03-21T00:43:21;100989.69;;;11.76;62.37
10460;BME280;54412;51.206;6.888;2023-03-21T00:45:49;100985.38;;;11.73;62.28
10460;BME280;54412;51.206;6.888;2023-03-21T00:48:17;100990.47;;;11.78;62.01
10460;BME280;54412;51.206;6.888;2023-03-21T00:50:45;100982.78;;;11.90;61.46
10460;BME280;54412;51.206;6.888;2023-03-21T00:53:13;100975.06;;;11.86;61.90
10460;BME280;54412;51.206;6.888;2023-03-21T00:55:39;100968.78;;;11.88;61.54
10460;BME280;54412;51.206;6.888;2023-03-21T00:58:05;100968.00;;;11.69;62.37
10460;BME280;54412;51.206;6.888;2023-03-21T01:00:32;100968.16;;;11.83;61.95
10460;BME280;54412;51.206;6.888;2023-03-21T01:03:05;100965.53;;;11.83;62.36
10460;BME280;54412;51.206;6.888;2023-03-21T01:05:52;100961.41;;;11.78;62.29
10460;BME280;54412;51.206;6.888;2023-03-21T01:08:37;100966.28;;;11.68;63.07
10460;BME280;54412;51.206;6.888;2023-03-21T01:11:09;100964.94;;;11.77;62.58
10460;BME280;54412;51.206;6.888;2023-03-21T01:13:35;100956.66;;;11.84;62.19
10460;BME280;54412;51.206;6.888;2023-03-21T01:16:03;100963.94;;;11.96;62.03
10460;BME280;54412;51.206;6.888;2023-03-21T01:18:30;100965.28;;;11.71;62.46
10460;BME280;54412;51.206;6.888;2023-03-21T01:20:58;100960.25;;;11.83;62.31
10460;BME280;54412;51.206;6.888;2023-03-21T01:23:27;100954.16;;;11.81;62.77
10460;BME280;54412;51.206;6.888;2023-03-21T01:25:56;100955.50;;;11.73;62.84
10460;BME280;54412;51.206;6.888;2023-03-21T01:28:25;100956.28;;;11.75;62.96
10460;BME280;54412;51.206;6.888;2023-03-21T01:30:51;100959.28;;;11.67;63.72
10460;BME280;54412;51.206;6.888;2023-03-21T01:33:18;100949.75;;;11.99;62.40
10460;BME280;54412;51.206;6.888;2023-03-21T01:35:45;100952.56;;;11.96;62.78
10460;BME280;54412;51.206;6.888;2023-03-21T01:38:11;100948.03;;;11.98;62.25
10460;BME280;54412;51.206;6.888;2023-03-21T01:40:38;100948.41;;;11.90;62.68
10460;BME280;54412;51.206;6.888;2023-03-21T01:43:20;100946.66;;;11.91;63.03
10460;BME280;54412;51.206;6.888;2023-03-21T01:46:20;100939.00;;;11.85;63.21
10460;BME280;54412;51.206;6.888;2023-03-21T01:48:59;100945.63;;;11.93;62.69
10460;BME280;54412;51.206;6.888;2023-03-21T01:51:28;100945.78;;;11.90;63.27
10460;BME280;54412;51.206;6.888;2023-03-21T01:53:56;100939.34;;;11.96;63.05
10460;BME280;54412;51.206;6.888;2023-03-21T01:56:33;100937.22;;;12.02;62.83
10460;BME280;54412;51.206;6.888;2023-03-21T01:59:28;100934.66;;;12.01;63.04
10460;BME280;54412;51.206;6.888;2023-03-21T02:02:00;100926.94;;;11.96;63.65
10460;BME280;54412;51.206;6.888;2023-03-21T02:04:34;100927.50;;;12.03;63.09
10460;BME280;54412;51.206;6.888;2023-03-21T02:07:14;100927.25;;;11.73;64.47
10460;BME280;54412;51.206;6.888;2023-03-21T02:09:46;100931.47;;;11.77;64.68
10460;BME280;54412;51.206;6.888;2023-03-21T02:12:12;100922.44;;;11.81;64.80
10460;BME280;54412;51.206;6.888;2023-03-21T02:14:41;100928.84;;;11.94;64.37
10460;BME280;54412;51.206;6.888;2023-03-21T02:37:35;100882.72;;;12.00;64.75
10460;BME280;54412;51.206;6.888;2023-03-21T02:40:22;100871.00;;;11.88;65.05
10460;BME280;54412;51.206;6.888;2023-03-21T02:45:51;100881.19;;;11.96;64.87
10460;BME280;54412;51.206;6.888;2023-03-21T02:48:25;100886.38;;;11.80;65.86
10460;BME280;54412;51.206;6.888;2023-03-21T02:50:58;100865.41;;;11.94;65.53
10460;BME280;54412;51.206;6.888;2023-03-21T02:53:32;100876.34;;;11.87;65.71
10460;BME280;54412;51.206;6.888;2023-03-21T02:56:00;100874.34;;;11.75;66.45
10460;BME280;54412;51.206;6.888;2023-03-21T02:58:29;100881.09;;;11.80;66.01
10460;BME280;54412;51.206;6.888;2023-03-21T03:00:56;100864.06;;;11.86;66.05
10460;BME280;54412;51.206;6.888;2023-03-21T03:03:23;100875.84;;;12.13;64.37
10460;BME280;54412;51.206;6.888;2023-03-21T03:05:55;100874.09;;;11.79;65.52
10460;BME280;54412;51.206;6.888;2023-03-21T03:11:36;100866.34;;;11.76;65.10
10460;BME280;54412;51.206;6.888;2023-03-21T03:17:15;100865.22;;;11.63;65.17
10460;BME280;54412;51.206;6.888;2023-03-21T03:20:42;100868.03;;;11.77;64.81
10460;BME280;54412;51.206;6.888;2023-03-21T03:26:16;100862.38;;;11.32;66.49
10460;BME280;54412;51.206;6.888;2023-03-21T03:28:54;100852.84;;;11.29;66.67
10460;BME280;54412;51.206;6.888;2023-03-21T03:31:28;100851.06;;;11.47;66.53
10460;BME280;54412;51.206;6.888;2023-03-21T03:34:03;100849.03;;;11.35;66.87
10460;BME280;54412;51.206;6.888;2023-03-21T03:36:38;100846.16;;;11.39;66.91
10460;BME280;54412;51.206;6.888;2023-03-21T03:39:09;100841.44;;;11.63;66.21
10460;BME280;54412;51.206;6.888;2023-03-21T03:42:04;100843.69;;;11.53;66.17
10460;BME280;54412;51.206;6.888;2023-03-21T03:44:32;100852.09;;;11.62;65.98
10460;BME280;54412;51.206;6.888;2023-03-21T03:47:17;100847.03;;;11.57;65.68
10460;BME280;54412;51.206;6.888;2023-03-21T03:49:55;100835.13;;;11.48;66.36
10460;BME280;54412;51.206;6.888;2023-03-21T03:52:28;100836.38;;;11.41;66.20
10460;BME280;54412;51.206;6.888;2023-03-21T03:54:57;100842.38;;;11.45;66.77
10460;BME280;54412;51.206;6.888;2023-03-21T03:57:25;100841.75;;;11.40;66.86
10460;BME280;54412;51.206;6.888;2023-03-21T03:59:52;100834.19;;;11.49;66.93
10460;BME280;54412;51.206;6.888;2023-03-21T04:02:18;100836.63;;;11.71;65.47
10460;BME280;54412;51.206;6.888;2023-03-21T04:04:45;100833.69;;;11.60;66.01
10460;BME280;54412;51.206;6.888;2023-03-21T04:07:11;100829.22;;;11.60;66.22
10460;BME280;54412;51.206;6.888;2023-03-21T04:09:37;100824.66;;;11.81;65.10
10460;BME280;54412;51.206;6.888;2023-03-21T04:12:03;100822.09;;;11.63;65.74
10460;BME280;54412;51.206;6.888;2023-03-21T04:14:29;100820.63;;;11.74;65.42
10460;BME280;54412;51.206;6.888;2023-03-21T04:16:55;100814.75;;;11.69;65.43
10460;BME280;54412;51.206;6.888;2023-03-21T04:19:21;100814.78;;;11.50;65.78
10460;BME280;54412;51.206;6.888;2023-03-21T04:21:47;100818.97;;;11.20;67.42
10460;BME280;54412;51.206;6.888;2023-03-21T04:24:13;100818.59;;;11.45;66.07
10460;BME280;54412;51.206;6.888;2023-03-21T04:26:39;100818.06;;;11.38;66.47
10460;BME280;54412;51.206;6.888;2023-03-21T04:29:05;100812.38;;;11.46;66.46
10460;BME280;54412;51.206;6.888;2023-03-21T04:31:33;100817.66;;;11.63;65.49
10460;BME280;54412;51.206;6.888;2023-03-21T04:34:03;100815.41;;;11.55;65.57
10460;BME280;54412;51.206;6.888;2023-03-21T04:36:30;100816.13;;;11.42;66.04
10460;BME280;54412;51.206;6.888;2023-03-21T04:39:05;100822.72;;;11.50;65.90
10460;BME280;54412;51.206;6.888;2023-03-21T04:41:40;100819.38;;;11.47;65.82
10460;BME280;54412;51.206;6.888;2023-03-21T04:44:07;100817.03;;;11.58;65.22
10460;BME280;54412;51.206;6.888;2023-03-21T04:46:34;100822.72;;;11.50;65.24
10460;BME280;54412;51.206;6.888;2023-03-21T04:49:00;100821.63;;;11.37;66.04
10460;BME280;54412;51.206;6.888;2023-03-21T04:51:26;100823.31;;;11.55;65.32
10460;BME280;54412;51.206;6.888;2023-03-21T04:53:52;100826.59;;;11.43;66.20
10460;BME280;54412;51.206;6.888;2023-03-21T04:56:25;100813.84;;;11.51;65.61
10460;BME280;54412;51.206;6.888;2023-03-21T04:58:59;100800.03;;;11.46;66.05
10460;BME280;54412;51.206;6.888;2023-03-21T05:01:26;100803.81;;;11.41;66.08
10460;BME280;54412;51.206;6.888;2023-03-21T05:04:02;100785.13;;;11.45;66.00
10460;BME280;54412;51.206;6.888;2023-03-21T05:06:29;100797.63;;;11.42;65.96
10460;BME280;54412;51.206;6.888;2023-03-21T05:08:57;100790.31;;;11.47;65.81
10460;BME280;54412;51.206;6.888;2023-03-21T05:11:26;100790.22;;;11.48;66.04
10460;BME280;54412;51.206;6.888;2023-03-21T05:13:52;100801.88;;;11.44;65.96
10460;BME280;54412;51.206;6.888;2023-03-21T05:16:17;100802.09;;;11.23;66.83
10460;BME280;54412;51.206;6.888;2023-03-21T05:18:43;100799.03;;;11.49;65.98
10460;BME280;54412;51.206;6.888;2023-03-21T05:21:09;100795.50;;;11.48;66.28
10460;BME280;54412;51.206;6.888;2023-03-21T05:23:36;100798.78;;;11.53;65.66
10460;BME280;54412;51.206;6.888;2023-03-21T05:26:08;100798.31;;;11.45;65.87
10460;BME280;54412;51.206;6.888;2023-03-21T05:28:34;100796.47;;;11.47;65.83
10460;BME280;54412;51.206;6.888;2023-03-21T05:31:03;100808.50;;;11.36;66.44
10460;BME280;54412;51.206;6.888;2023-03-21T05:33:29;100800.16;;;11.26;67.11
10460;BME280;54412;51.206;6.888;2023-03-21T05:35:55;100798.56;;;11.58;65.86
10460;BME280;54412;51.206;6.888;2023-03-21T05:38:20;100802.44;;;11.51;66.07
10460;BME280;54412;51.206;6.888;2023-03-21T05:40:48;100803.84;;;11.58;65.98
10460;BME280;54412;51.206;6.888;2023-03-21T05:43:14;100798.88;;;11.35;67.13
10460;BME280;54412;51.206;6.888;2023-03-21T05:45:40;100797.94;;;11.53;66.65
10460;BME280;54412;51.206;6.888;2023-03-21T05:48:06;100802.38;;;11.52;66.64
10460;BME280;54412;51.206;6.888;2023-03-21T05:50:32;100803.91;;;11.56;66.79
10460;BME280;54412;51.206;6.888;2023-03-21T05:52:57;100802.13;;;11.40;67.59
10460;BME280;54412;51.206;6.888;2023-03-21T05:55:23;100803.03;;;11.39;68.27
10460;BME280;54412;51.206;6.888;2023-03-21T05:57:49;100806.72;;;11.36;68.58
10460;BME280;54412;51.206;6.888;2023-03-21T06:00:15;100816.91;;;11.44;68.73
10460;BME280;54412;51.206;6.888;2023-03-21T06:02:41;100801.34;;;11.38;68.89
10460;BME280;54412;51.206;6.888;2023-03-21T06:05:07;100808.66;;;11.33;68.85
10460;BME280;54412;51.206;6.888;2023-03-21T06:07:33;100812.28;;;11.30;69.16
10460;BME280;54412;51.206;6.888;2023-03-21T06:10:00;100808.97;;;11.44;68.91
10460;BME280;54412;51.206;6.888;2023-03-21T06:12:25;100806.47;;;11.41;69.21
10460;BME280;54412;51.206;6.888;2023-03-21T06:14:51;100805.69;;;11.39;69.54
10460;BME280;54412;51.206;6.888;2023-03-21T06:17:17;100810.50;;;11.48;70.66
10460;BME280;54412;51.206;6.888;2023-03-21T06:19:42;100800.66;;;11.69;71.24
10460;BME280;54412;51.206;6.888;2023-03-21T06:22:08;100797.00;;;11.71;70.86
10460;BME280;54412;51.206;6.888;2023-03-21T06:24:34;100790.22;;;11.83;70.46
10460;BME280;54412;51.206;6.888;2023-03-21T06:26:59;100796.00;;;11.74;70.00
10460;BME280;54412;51.206;6.888;2023-03-21T06:29:25;100799.25;;;11.62;70.70
10460;BME280;54412;51.206;6.888;2023-03-21T06:31:51;100800.03;;;11.64;70.49
10460;BME280;54412;51.206;6.888;2023-03-21T06:34:16;100797.84;;;11.72;70.74
10460;BME280;54412;51.206;6.888;2023-03-21T06:36:42;100805.00;;;11.70;70.35
10460;BME280;54412;51.206;6.888;2023-03-21T06:39:09;100808.28;;;11.75;70.20
10460;BME280;54412;51.206;6.888;2023-03-21T06:41:35;100807.66;;;11.70;70.97
10460;BME280;54412;51.206;6.888;2023-03-21T06:44:01;100800.28;;;11.76;70.48
10460;BME280;54412;51.206;6.888;2023-03-21T06:46:27;100810.22;;;11.71;70.04
10460;BME280;54412;51.206;6.888;2023-03-21T06:48:53;100804.78;;;11.74;70.30
10460;BME280;54412;51.206;6.888;2023-03-21T06:51:18;100809.50;;;11.68;70.08
10460;BME280;54412;51.206;6.888;2023-03-21T06:53:44;100809.50;;;11.68;70.77
10460;BME280;54412;51.206;6.888;2023-03-21T06:56:11;100815.50;;;11.71;70.91
10460;BME280;54412;51.206;6.888;2023-03-21T06:58:38;100814.41;;;11.75;70.11
10460;BME280;54412;51.206;6.888;2023-03-21T07:01:05;100809.94;;;11.58;70.09
10460;BME280;54412;51.206;6.888;2023-03-21T07:03:31;100817.97;;;11.57;70.74
10460;BME280;54412;51.206;6.888;2023-03-21T07:05:57;100821.53;;;11.56;71.17
10460;BME280;54412;51.206;6.888;2023-03-21T07:08:23;100826.22;;;11.51;71.13
10460;BME280;54412;51.206;6.888;2023-03-21T07:10:49;100827.81;;;11.53;71.04
10460;BME280;54412;51.206;6.888;2023-03-21T07:13:19;100830.72;;;11.49;71.40
10460;BME280;54412;51.206;6.888;2023-03-21T07:15:45;100829.31;;;11.42;71.71
10460;BME280;54412;51.206;6.888;2023-03-21T07:18:11;100831.19;;;11.40;72.05
10460;BME280;54412;51.206;6.888;2023-03-21T07:20:36;100835.13;;;11.48;72.14
10460;BME280;54412;51.206;6.888;2023-03-21T07:23:05;100836.38;;;11.58;71.83
10460;BME280;54412;51.206;6.888;2023-03-21T07:25:32;100837.22;;;11.59;71.81
10460;BME280;54412;51.206;6.888;2023-03-21T07:27:58;100842.88;;;11.70;72.07
10460;BME280;54412;51.206;6.888;2023-03-21T07:30:23;100837.28;;;11.76;71.83
10460;BME280;54412;51.206;6.888;2023-03-21T07:32:49;100838.31;;;11.55;72.89
10460;BME280;54412;51.206;6.888;2023-03-21T07:35:16;100835.38;;;11.61;72.79
10460;BME280;54412;51.206;6.888;2023-03-21T07:37:42;100829.03;;;11.65;72.86
10460;BME280;54412;51.206;6.888;2023-03-21T07:40:10;100817.59;;;11.65;73.00
10460;BME280;54412;51.206;6.888;2023-03-21T07:42:38;100817.03;;;11.58;74.00
10460;BME280;54412;51.206;6.888;2023-03-21T07:45:04;100807.31;;;11.41;75.18
10460;BME280;54412;51.206;6.888;2023-03-21T07:47:31;100805.84;;;11.19;76.65
10460;BME280;54412;51.206;6.888;2023-03-21T07:49:57;100810.09;;;11.04;77.11
10460;BME280;54412;51.206;6.888;2023-03-21T07:52:23;100810.28;;;11.18;77.25
10460;BME280;54412;51.206;6.888;2023-03-21T07:54:49;100814.53;;;11.21;77.39
10460;BME280;54412;51.206;6.888;2023-03-21T07:57:14;100800.66;;;11.34;77.58
10460;BME280;54412;51.206;6.888;2023-03-21T07:59:40;100796.81;;;11.06;78.85
10460;BME280;54412;51.206;6.888;2023-03-21T08:02:06;100805.19;;;11.14;79.00
10460;BME280;54412;51.206;6.888;2023-03-21T08:04:34;100806.72;;;11.36;78.74
10460;BME280;54412;51.206;6.888;2023-03-21T08:07:00;100803.25;;;11.17;79.88
10460;BME280;54412;51.206;6.888;2023-03-21T08:09:26;100806.00;;;11.33;79.51
10460;BME280;54412;51.206;6.888;2023-03-21T08:11:51;100820.75;;;11.37;79.70
10460;BME280;54412;51.206;6.888;2023-03-21T08:14:17;100817.50;;;11.32;80.04
10460;BME280;54412;51.206;6.888;2023-03-21T08:16:43;100823.34;;;11.38;79.79
10460;BME280;54412;51.206;6.888;2023-03-21T08:19:08;100821.06;;;11.48;79.68
10460;BME280;54412;51.206;6.888;2023-03-21T08:21:34;100818.75;;;11.42;79.77
10460;BME280;54412;51.206;6.888;2023-03-21T08:24:00;100820.25;;;11.47;79.67
10460;BME280;54412;51.206;6.888;2023-03-21T08:26:26;100822.41;;;11.39;79.79
10460;BME280;54412;51.206;6.888;2023-03-21T08:28:51;100821.22;;;11.45;80.46
10460;BME280;54412;51.206;6.888;2023-03-21T08:31:17;100821.06;;;11.48;80.22
10460;BME280;54412;51.206;6.888;2023-03-21T08:33:45;100820.63;;;11.40;81.78
10460;BME280;54412;51.206;6.888;2023-03-21T08:36:11;100817.66;;;11.46;80.75
10460;BME280;54412;51.206;6.888;2023-03-21T08:38:37;100819.47;;;11.45;81.46
10460;BME280;54412;51.206;6.888;2023-03-21T08:41:04;100813.84;;;11.34;82.04
10460;BME280;54412;51.206;6.888;2023-03-21T08:43:29;100815.78;;;11.31;82.17
10460;BME280;54412;51.206;6.888;2023-03-21T08:45:55;100829.91;;;11.30;82.71
10460;BME280;54412;51.206;6.888;2023-03-21T08:48:21;100830.22;;;11.24;82.96
10460;BME280;54412;51.206;6.888;2023-03-21T08:50:47;100827.91;;;11.35;83.00
10460;BME280;54412;51.206;6.888;2023-03-21T08:53:13;100828.28;;;11.44;82.79
10460;BME280;54412;51.206;6.888;2023-03-21T08:55:38;100818.50;;;11.46;82.42
10460;BME280;54412;51.206;6.888;2023-03-21T08:58:05;100814.41;;;11.58;82.23
10460;BME280;54412;51.206;6.888;2023-03-21T09:00:31;100817.44;;;11.50;82.57
10460;BME280;54412;51.206;6.888;2023-03-21T09:02:57;100803.44;;;11.48;83.09
10460;BME280;54412;51.206;6.888;2023-03-21T09:05:24;100811.44;;;11.47;83.48
10460;BME280;54412;51.206;6.888;2023-03-21T09:07:51;100805.53;;;11.59;82.31
10460;BME280;54412;51.206;6.888;2023-03-21T09:10:20;100808.41;;;11.37;83.85
10460;BME280;54412;51.206;6.888;2023-03-21T09:12:48;100805.91;;;11.51;83.90
10460;BME280;54412;51.206;6.888;2023-03-21T09:15:14;100794.28;;;11.55;83.96
10460;BME280;54412;51.206;6.888;2023-03-21T09:17:40;100801.59;;;11.68;83.15
10460;BME280;54412;51.206;6.888;2023-03-21T09:20:13;100800.34;;;11.57;83.64
10460;BME280;54412;51.206;6.888;2023-03-21T09:22:55;100809.66;;;11.47;84.24
10460;BME280;54412;51.206;6.888;2023-03-21T09:25:22;100794.78;;;11.62;83.65
10460;BME280;54412;51.206;6.888;2023-03-21T09:27:49;100804.41;;;11.65;83.73
10460;BME280;54412;51.206;6.888;2023-03-21T09:30:18;100810.97;;;11.56;83.94
10460;BME280;54412;51.206;6.888;2023-03-21T09:32:46;100809.25;;;11.55;84.25
10460;BME280;54412;51.206;6.888;2023-03-21T09:35:18;100814.22;;;11.61;83.83
10460;BME280;54412;51.206;6.888;2023-03-21T09:37:46;100808.78;;;11.30;84.61
10460;BME280;54412;51.206;6.888;2023-03-21T09:49:00;100805.09;;;11.68;83.53
10460;BME280;54412;51.206;6.888;2023-03-21T09:51:42;100806.31;;;11.61;83.45
10460;BME280;54412;51.206;6.888;2023-03-21T09:54:25;100797.53;;;11.60;83.76
10460;BME280;54412;51.206;6.888;2023-03-21T09:56:56;100801.66;;;11.49;84.56
10460;BME280;54412;51.206;6.888;2023-03-21T09:59:35;100809.25;;;11.55;84.55
10460;BME280;54412;51.206;6.888;2023-03-21T10:05:17;100799.09;;;11.47;84.63
10460;BME280;54412;51.206;6.888;2023-03-21T10:10:26;100799.56;;;11.55;83.85
10460;BME280;54412;51.206;6.888;2023-03-21T10:12:55;100793.75;;;11.83;82.95
10460;BME280;54412;51.206;6.888;2023-03-21T10:15:25;100794.13;;;11.76;83.13
10460;BME280;54412;51.206;6.888;2023-03-21T10:18:06;100785.25;;;11.94;82.04
10460;BME280;54412;51.206;6.888;2023-03-21T10:20:35;100787.22;;;12.06;81.57
10460;BME280;54412;51.206;6.888;2023-03-21T10:23:12;100786.41;;;11.88;81.73
10460;BME280;54412;51.206;6.888;2023-03-21T10:25:45;100784.03;;;11.67;81.84
10460;BME280;54412;51.206;6.888;2023-03-21T10:28:21;100769.50;;;11.58;82.45
10460;BME280;54412;51.206;6.888;2023-03-21T10:30:55;100773.00;;;11.76;81.92
10460;BME280;54412;51.206;6.888;2023-03-21T10:33:27;100770.03;;;11.82;81.78
10460;BME280;54412;51.206;6.888;2023-03-21T10:36:08;100763.16;;;11.95;81.94
10460;BME280;54412;51.206;6.888;2023-03-21T10:38:43;100753.84;;;11.88;80.84
10460;BME280;54412;51.206;6.888;2023-03-21T10:41:12;100750.97;;;11.92;80.69
10460;BME280;54412;51.206;6.888;2023-03-21T10:43:39;100734.66;;;11.84;81.49
10460;BME280;54412;51.206;6.888;2023-03-21T10:46:26;100750.09;;;11.92;80.70
10460;BME280;54412;51.206;6.888;2023-03-21T10:48:52;100743.25;;;11.88;79.70
10460;BME280;54412;51.206;6.888;2023-03-21T10:51:22;100727.06;;;11.78;80.56
10460;BME280;54412;51.206;6.888;2023-03-21T10:53:56;100723.16;;;11.85;80.53
10460;BME280;54412;51.206;6.888;2023-03-21T10:56:27;100715.47;;;11.81;80.45
10460;BME280;54412;51.206;6.888;2023-03-21T10:58:57;100716.00;;;12.03;80.19
10460;BME280;54412;51.206;6.888;2023-03-21T11:01:33;100713.97;;;12.08;80.69
10460;BME280;54412;51.206;6.888;2023-03-21T11:04:34;100707.63;;;11.79;80.89
10460;BME280;54412;51.206;6.888;2023-03-21T11:07:04;100705.25;;;11.75;80.55
10460;BME280;54412;51.206;6.888;2023-03-21T11:09:53;100698.16;;;11.58;81.24
10460;BME280;54412;51.206;6.888;2023-03-21T11:12:36;100694.97;;;11.69;80.93
10460;BME280;54412;51.206;6.888;2023-03-21T11:17:54;100706.81;;;11.94;80.48
10460;BME280;54412;51.206;6.888;2023-03-21T11:20:20;100706.94;;;11.91;80.13
10460;BME280;54412;51.206;6.888;2023-03-21T11:22:47;100690.06;;;11.78;80.00
10460;BME280;54412;51.206;6.888;2023-03-21T11:25:37;100692.28;;;11.86;79.91
10460;BME280;54412;51.206;6.888;2023-03-21T11:28:15;100687.69;;;11.89;79.50
10460;BME280;54412;51.206;6.888;2023-03-21T11:31:02;100688.81;;;12.01;78.81
10460;BME280;54412;51.206;6.888;2023-03-21T11:33:43;100695.56;;;11.91;78.37
10460;BME280;54412;51.206;6.888;2023-03-21T11:38:49;100689.06;;;12.12;77.20
10460;BME280;54412;51.206;6.888;2023-03-21T11:41:27;100685.75;;;12.08;77.90
10460;BME280;54412;51.206;6.888;2023-03-21T11:43:56;100687.03;;;12.01;77.42
10460;BME280;54412;51.206;6.888;2023-03-21T11:46:28;100686.75;;;11.90;77.46
10460;BME280;54412;51.206;6.888;2023-03-21T11:48:57;100692.81;;;11.92;77.88
10460;BME280;54412;51.206;6.888;2023-03-21T11:51:47;100687.44;;;11.94;77.51
10460;BME280;54412;51.206;6.888;2023-03-21T11:57:30;100677.47;;;11.83;77.74
10460;BME280;54412;51.206;6.888;2023-03-21T12:00:17;100673.44;;;11.92;77.58
10460;BME280;54412;51.206;6.888;2023-03-21T12:05:54;100668.19;;;12.23;77.01
10460;BME280;54412;51.206;6.888;2023-03-21T12:09:23;100665.53;;;12.23;77.11
10460;BME280;54412;51.206;6.888;2023-03-21T12:15:02;100669.53;;;12.30;77.11
10460;BME280;54412;51.206;6.888;2023-03-21T12:20:36;100673.72;;;12.18;77.48
10460;BME280;54412;51.206;6.888;2023-03-21T12:26:04;100668.16;;;12.07;77.69
10460;BME280;54412;51.206;6.888;2023-03-21T12:43:52;100662.28;;;12.02;80.43
10460;BME280;54412;51.206;6.888;2023-03-21T12:46:44;100657.16;;;12.15;80.59
10460;BME280;54412;51.206;6.888;2023-03-21T12:52:29;100638.50;;;12.02;80.37
10460;BME280;54412;51.206;6.888;2023-03-21T12:55:12;100636.44;;;12.07;80.13
10460;BME280;54412;51.206;6.888;2023-03-21T12:57:47;100647.28;;;12.03;80.71
10460;BME280;54412;51.206;6.888;2023-03-21T13:00:47;100622.03;;;12.13;80.93
10460;BME280;54412;51.206;6.888;2023-03-21T13:03:38;100632.59;;;12.13;80.72
10460;BME280;54412;51.206;6.888;2023-03-21T13:06:10;100633.63;;;11.95;80.46
10460;BME280;54412;51.206;6.888;2023-03-21T13:08:45;100623.59;;;12.01;80.53
10460;BME280;54412;51.206;6.888;2023-03-21T13:11:20;100624.88;;;11.94;79.71
10460;BME280;54412;51.206;6.888;2023-03-21T13:14:24;100613.00;;;12.17;79.30
10460;BME280;54412;51.206;6.888;2023-03-21T13:17:00;100606.53;;;12.07;79.04
10460;BME280;54412;51.206;6.888;2023-03-21T13:19:39;100613.16;;;11.98;79.16
10460;BME280;54412;51.206;6.888;2023-03-21T13:22:23;100600.13;;;11.95;79.72
10460;BME280;54412;51.206;6.888;2023-03-21T13:25:18;100586.22;;;12.07;79.63
10460;BME280;54412;51.206;6.888;2023-03-21T13:27:54;100601.25;;;11.76;79.52
10460;BME280;54412;51.206;6.888;2023-03-21T13:30:28;100584.19;;;11.81;79.07
10460;BME280;54412;51.206;6.888;2023-03-21T13:33:11;100570.81;;;12.00;78.69
10460;BME280;54412;51.206;6.888;2023-03-21T13:35:40;100582.81;;;11.90;78.92
10460;BME280;54412;51.206;6.888;2023-03-21T13:38:20;100577.78;;;12.01;78.36
10460;BME280;54412;51.206;6.888;2023-03-21T13:41:08;100575.78;;;12.20;77.87
10460;BME280;54412;51.206;6.888;2023-03-21T13:51:52;100555.00;;;12.73;75.13
10460;BME280;54412;51.206;6.888;2023-03-21T13:57:05;100541.13;;;12.54;75.71
10460;BME280;54412;51.206;6.888;2023-03-21T13:59:42;100545.72;;;12.66;75.34
10460;BME280;54412;51.206;6.888;2023-03-21T14:02:32;100555.16;;;12.70;74.96
10460;BME280;54412;51.206;6.888;2023-03-21T14:05:06;100553.75;;;12.65;74.86
10460;BME280;54412;51.206;6.888;2023-03-21T14:07:45;100556.63;;;12.46;75.17
10460;BME280;54412;51.206;6.888;2023-03-21T14:10:34;100551.44;;;12.44;75.73
10460;BME280;54412;51.206;6.888;2023-03-21T14:13:04;100537.06;;;12.48;75.68
10460;BME280;54412;51.206;6.888;2023-03-21T14:15:45;100535.16;;;12.36;75.82
10460;BME280;54412;51.206;6.888;2023-03-21T14:18:19;100540.69;;;12.61;75.42
10460;BME280;54412;51.206;6.888;2023-03-21T14:20:51;100540.59;;;12.63;75.40
10460;BME280;54412;51.206;6.888;2023-03-21T14:23:18;100541.88;;;12.72;75.39
10460;BME280;54412;51.206;6.888;2023-03-21T14:25:45;100541.75;;;12.59;74.16
10460;BME280;54412;51.206;6.888;2023-03-21T14:28:28;100526.88;;;12.56;75.06
10460;BME280;54412;51.206;6.888;2023-03-21T14:30:59;100531.94;;;12.75;74.43
10460;BME280;54412;51.206;6.888;2023-03-21T14:33:40;100535.81;;;12.84;73.81
10460;BME280;54412;51.206;6.888;2023-03-21T14:36:16;100534.84;;;12.85;73.97
10460;BME280;54412;51.206;6.888;2023-03-21T14:38:53;100532.28;;;12.55;73.81
10460;BME280;54412;51.206;6.888;2023-03-21T14:41:29;100538.34;;;12.71;73.80
10460;BME280;54412;51.206;6.888;2023-03-21T14:44:18;100537.31;;;12.74;72.86
10460;BME280;54412;51.206;6.888;2023-03-21T14:46:51;100537.69;;;12.68;73.44
10460;BME280;54412;51.206;6.888;2023-03-21T14:49:27;100540.44;;;12.66;73.41